createdAt,value
2023-04-07T00:00:32.592Z,89.36
2023-04-07T00:03:18.205Z,89.05
2023-04-07T00:05:46.643Z,88.50
2023-04-07T00:08:15.022Z,88.23
2023-04-07T00:10:43.503Z,88.76
2023-04-07T00:13:12.104Z,89.03
2023-04-07T00:15:41.231Z,89.15
2023-04-07T00:18:10.340Z,89.19
2023-04-07T00:20:38.988Z,88.74
2023-04-07T00:23:07.390Z,88.97
2023-04-07T00:25:35.765Z,88.88
2023-04-07T00:28:04.455Z,88.91
2023-04-07T00:30:32.732Z,88.71
2023-04-07T00:33:01.497Z,88.64
2023-04-07T00:35:30.068Z,87.96
2023-04-07T00:37:58.702Z,87.61
2023-04-07T00:40:27.300Z,87.23
2023-04-07T00:42:55.579Z,87.53
2023-04-07T00:45:24.392Z,87.51
2023-04-07T00:47:53.422Z,87.64
2023-04-07T00:50:22.647Z,87.52
2023-04-07T00:52:51.670Z,87.53
2023-04-07T00:55:20.164Z,87.33
2023-04-07T00:57:52.028Z,86.97
2023-04-07T01:00:21.224Z,86.64
2023-04-07T01:03:00.448Z,86.54
2023-04-07T01:05:28.741Z,86.30
2023-04-07T01:08:14.219Z,86.15
2023-04-07T01:11:00.947Z,86.39
2023-04-07T01:13:39.037Z,86.46
2023-04-07T01:16:22.954Z,86.51
2023-04-07T01:18:57.620Z,87.06
2023-04-07T01:21:29.114Z,87.15
2023-04-07T01:24:22.293Z,87.56
2023-04-07T01:26:51.664Z,87.64
2023-04-07T01:29:40.652Z,87.75
2023-04-07T01:32:12.199Z,87.56
2023-04-07T01:34:42.233Z,87.79
2023-04-07T01:37:11.748Z,88.03
2023-04-07T01:39:40.438Z,88.28
2023-04-07T01:42:09.709Z,88.72
2023-04-07T01:44:39.372Z,88.95
2023-04-07T01:47:08.573Z,89.34
2023-04-07T01:49:38.387Z,89.56
2023-04-07T01:52:08.293Z,89.46
2023-04-07T01:54:37.460Z,89.28
2023-04-07T01:57:05.690Z,89.27
2023-04-07T01:59:33.961Z,89.31
2023-04-07T02:02:03.265Z,89.63
2023-04-07T02:04:39.333Z,89.55
2023-04-07T02:07:21.495Z,89.43
2023-04-07T02:09:53.899Z,89.42
2023-04-07T02:12:26.685Z,90.06
2023-04-07T02:15:04.337Z,90.61
2023-04-07T02:17:36.242Z,90.41
2023-04-07T02:20:08.327Z,90.14
2023-04-07T02:22:39.906Z,88.96
2023-04-07T02:25:23.402Z,88.68
2023-04-07T02:27:52.173Z,89.07
2023-04-07T02:30:20.863Z,89.54
2023-04-07T02:32:49.200Z,89.02
2023-04-07T02:35:18.072Z,89.21
2023-04-07T02:37:47.575Z,89.30
2023-04-07T02:40:15.960Z,89.82
2023-04-07T02:42:44.531Z,89.94
2023-04-07T02:45:12.931Z,89.61
2023-04-07T02:47:41.439Z,89.16
2023-04-07T02:50:10.994Z,88.76
2023-04-07T02:52:39.430Z,88.45
2023-04-07T02:55:12.611Z,89.18
2023-04-07T02:57:41.414Z,88.97
2023-04-07T03:00:29.856Z,89.28
2023-04-07T03:03:18.518Z,89.42
2023-04-07T03:06:07.158Z,89.46
2023-04-07T03:08:37.362Z,89.36
2023-04-07T03:11:07.084Z,88.90
2023-04-07T03:13:35.472Z,88.87
2023-04-07T03:16:05.801Z,88.87
2023-04-07T03:18:37.969Z,88.86
2023-04-07T03:21:06.659Z,88.75
2023-04-07T03:23:35.038Z,88.69
2023-04-07T03:26:03.222Z,88.60
2023-04-07T03:28:35.291Z,88.40
2023-04-07T03:31:03.964Z,88.53
2023-04-07T03:33:32.359Z,88.73
2023-04-07T03:36:00.830Z,88.34
2023-04-07T03:38:30.052Z,87.26
2023-04-07T03:41:00.803Z,86.86
2023-04-07T03:43:29.892Z,87.11
2023-04-07T03:45:59.029Z,86.89
2023-04-07T03:48:28.747Z,87.17
2023-04-07T03:51:23.704Z,87.47
2023-04-07T03:53:55.213Z,87.25
2023-04-07T03:56:33.569Z,87.04
2023-04-07T03:59:01.855Z,87.15
2023-04-07T04:01:33.963Z,87.26
2023-04-07T04:04:09.523Z,87.03
2023-04-07T04:06:38.264Z,86.91
2023-04-07T04:09:17.722Z,86.98
2023-04-07T04:11:47.730Z,87.22
2023-04-07T04:14:17.023Z,87.18
2023-04-07T04:16:50.630Z,87.50
2023-04-07T04:19:42.252Z,87.38
2023-04-07T04:22:16.461Z,87.39
2023-04-07T04:24:50.785Z,87.61
2023-04-07T04:27:19.292Z,87.56
2023-04-07T04:29:51.850Z,87.78
2023-04-07T04:32:21.493Z,88.25
2023-04-07T04:34:49.849Z,88.38
2023-04-07T04:37:19.560Z,88.95
2023-04-07T04:39:48.365Z,89.31
2023-04-07T04:42:18.995Z,89.55
2023-04-07T04:44:49.245Z,89.78
2023-04-07T04:47:23.144Z,89.61
2023-04-07T04:49:59.309Z,89.75
2023-04-07T04:52:29.007Z,90.17
2023-04-07T04:54:57.903Z,90.15
2023-04-07T04:57:29.562Z,89.25
2023-04-07T05:00:04.385Z,88.75
2023-04-07T05:02:42.542Z,89.09
2023-04-07T05:05:12.276Z,89.41
2023-04-07T05:07:41.109Z,89.28
2023-04-07T05:10:12.981Z,89.35
2023-04-07T05:12:46.880Z,89.63
2023-04-07T05:15:15.774Z,89.29
2023-04-07T05:17:44.614Z,89.09
2023-04-07T05:20:28.959Z,88.76
2023-04-07T05:23:07.538Z,87.93
2023-04-07T05:25:37.069Z,87.86
2023-04-07T05:28:06.902Z,87.96
2023-04-07T05:30:35.772Z,87.80
2023-04-07T05:33:04.193Z,88.36
2023-04-07T05:35:47.046Z,88.53
2023-04-07T05:38:24.659Z,87.59
2023-04-07T05:40:54.274Z,87.37
2023-04-07T05:43:27.366Z,87.36
2023-04-07T05:45:56.930Z,86.89
2023-04-07T05:48:26.791Z,86.16
2023-04-07T05:50:57.240Z,85.64
2023-04-07T05:53:26.734Z,85.89
2023-04-07T05:55:56.451Z,85.70
2023-04-07T05:58:36.088Z,84.85
2023-04-07T06:01:05.712Z,85.01
2023-04-07T06:03:36.396Z,84.89
2023-04-07T06:06:29.036Z,85.19
2023-04-07T06:08:57.604Z,84.93
2023-04-07T06:11:27.490Z,83.95
2023-04-07T06:13:55.766Z,83.82
2023-04-07T06:16:25.709Z,84.33
2023-04-07T06:18:54.068Z,85.34
2023-04-07T06:21:22.667Z,85.46
2023-04-07T06:23:51.225Z,85.22
2023-04-07T06:26:19.781Z,84.98
2023-04-07T06:28:48.118Z,84.60
2023-04-07T06:31:17.264Z,84.36
2023-04-07T06:33:46.411Z,83.35
2023-04-07T06:36:15.009Z,81.90
2023-04-07T06:38:44.008Z,81.95
2023-04-07T06:41:17.024Z,82.77
2023-04-07T06:43:48.228Z,82.94
2023-04-07T06:46:17.215Z,83.39
2023-04-07T06:48:47.061Z,83.41
2023-04-07T06:51:15.964Z,83.25
2023-04-07T06:53:44.651Z,83.00
2023-04-07T06:56:13.037Z,83.04
2023-04-07T06:58:41.317Z,82.95
2023-04-07T07:01:09.850Z,82.87
2023-04-07T07:03:38.645Z,82.75
2023-04-07T07:06:07.405Z,82.52
2023-04-07T07:08:35.990Z,82.13
2023-04-07T07:11:04.366Z,82.28
2023-04-07T07:13:32.961Z,82.01
2023-04-07T07:16:01.674Z,82.01
2023-04-07T07:18:31.691Z,82.28
2023-04-07T07:21:00.677Z,82.01
2023-04-07T07:23:29.050Z,81.50
2023-04-07T07:25:57.571Z,81.66
2023-04-07T07:28:26.487Z,81.16
2023-04-07T07:30:55.056Z,80.80
2023-04-07T07:33:23.319Z,80.72
2023-04-07T07:35:51.869Z,80.08
2023-04-07T07:38:20.695Z,79.48
2023-04-07T07:40:49.087Z,79.38
2023-04-07T07:43:18.278Z,79.22
2023-04-07T07:45:47.283Z,78.72
2023-04-07T07:48:15.749Z,78.93
2023-04-07T07:50:44.965Z,78.48
2023-04-07T07:53:13.767Z,78.37
2023-04-07T07:55:43.478Z,77.36
2023-04-07T07:58:12.177Z,77.17
2023-04-07T08:00:41.064Z,76.91
2023-04-07T08:03:09.441Z,76.41
2023-04-07T08:05:39.504Z,76.41
2023-04-07T08:08:08.360Z,76.93
2023-04-07T08:10:36.772Z,76.64
2023-04-07T08:13:05.751Z,76.81
2023-04-07T08:15:34.334Z,75.71
2023-04-07T08:18:04.960Z,75.55
2023-04-07T08:20:34.159Z,75.07
2023-04-07T08:23:02.560Z,74.72
2023-04-07T08:25:31.165Z,74.23
2023-04-07T08:27:59.530Z,73.70
2023-04-07T08:30:27.812Z,74.59
2023-04-07T08:32:56.939Z,75.11
2023-04-07T08:35:25.520Z,74.98
2023-04-07T08:37:53.737Z,72.04
2023-04-07T08:40:21.969Z,72.95
2023-04-07T08:42:51.728Z,74.12
2023-04-07T08:45:22.342Z,74.50
2023-04-07T08:47:57.099Z,74.35
2023-04-07T08:50:27.615Z,72.59
2023-04-07T08:52:59.139Z,72.27
2023-04-07T08:55:27.724Z,71.93
2023-04-07T08:57:58.268Z,71.72
2023-04-07T09:00:28.904Z,71.57
2023-04-07T09:02:57.791Z,71.38
2023-04-07T09:05:26.656Z,70.93
2023-04-07T09:07:54.846Z,71.05
2023-04-07T09:10:23.661Z,71.14
2023-04-07T09:12:54.805Z,68.85
2023-04-07T09:15:24.142Z,69.08
2023-04-07T09:17:52.632Z,69.07
2023-04-07T09:20:21.500Z,68.95
2023-04-07T09:22:50.826Z,69.25
2023-04-07T09:25:26.558Z,69.14
2023-04-07T09:27:55.042Z,68.77
2023-04-07T09:30:24.169Z,69.19
2023-04-07T09:32:52.695Z,69.51
2023-04-07T09:35:23.372Z,69.36
2023-04-07T09:38:02.164Z,69.10
2023-04-07T09:40:30.977Z,68.46
2023-04-07T09:42:59.942Z,68.31
2023-04-07T09:48:06.852Z,66.76
2023-04-07T09:50:41.729Z,67.05
2023-04-07T09:53:10.709Z,67.57
2023-04-07T09:55:41.872Z,68.12
2023-04-07T09:58:17.191Z,67.69
2023-04-07T10:00:46.876Z,67.63
2023-04-07T10:03:15.952Z,67.92
2023-04-07T10:05:45.663Z,67.71
2023-04-07T10:08:23.139Z,66.46
2023-04-07T10:10:56.010Z,64.18
2023-04-07T10:13:26.098Z,63.59
2023-04-07T10:16:03.021Z,62.83
2023-04-07T10:18:33.574Z,61.23
2023-04-07T10:21:05.422Z,61.14
2023-04-07T10:23:49.151Z,60.94
2023-04-07T10:26:23.904Z,59.43
2023-04-07T10:28:59.338Z,58.54
2023-04-07T10:31:28.168Z,58.51
2023-04-07T10:33:57.829Z,56.76
2023-04-07T10:36:26.723Z,54.54
2023-04-07T10:39:07.498Z,54.80
2023-04-07T10:41:37.840Z,53.91
2023-04-07T10:44:08.558Z,54.47
2023-04-07T10:46:48.610Z,54.53
2023-04-07T10:49:18.781Z,52.10
2023-04-07T10:52:15.361Z,51.61
2023-04-07T10:54:43.964Z,52.10
2023-04-07T10:57:15.994Z,52.51
2023-04-07T11:00:12.543Z,52.29
2023-04-07T11:02:41.769Z,52.05
2023-04-07T11:05:21.324Z,51.72
2023-04-07T11:07:52.211Z,52.16
2023-04-07T11:10:22.242Z,52.30
2023-04-07T11:13:05.689Z,51.79
2023-04-07T11:15:40.442Z,50.27
2023-04-07T11:18:17.261Z,49.80
2023-04-07T11:20:48.370Z,48.42
2023-04-07T11:23:18.599Z,45.79
2023-04-07T11:25:50.195Z,42.91
2023-04-07T11:28:19.384Z,43.05
2023-04-07T11:30:51.956Z,44.04
2023-04-07T11:33:29.207Z,42.53
2023-04-07T11:36:01.966Z,43.75
2023-04-07T11:38:36.299Z,42.01
2023-04-07T11:41:13.382Z,40.00
2023-04-07T11:43:42.682Z,40.62
2023-04-07T11:46:14.360Z,39.97
2023-04-07T11:48:44.400Z,39.47
2023-04-07T11:51:18.492Z,37.13
2023-04-07T11:53:48.234Z,38.50
2023-04-07T11:56:18.759Z,38.84
2023-04-07T11:58:51.942Z,38.83
2023-04-07T12:01:21.591Z,38.54
2023-04-07T12:04:02.549Z,34.48
2023-04-07T12:06:35.347Z,35.88
2023-04-07T12:09:05.418Z,34.53
2023-04-07T12:11:34.774Z,36.10
2023-04-07T12:14:05.577Z,37.17
2023-04-07T12:16:39.123Z,35.95
2023-04-07T12:19:15.121Z,34.45
2023-04-07T12:21:44.016Z,34.51
2023-04-07T12:24:13.094Z,34.64
2023-04-07T12:26:41.416Z,34.28
2023-04-07T12:29:09.687Z,34.98
2023-04-07T12:31:38.089Z,35.46
2023-04-07T12:34:06.659Z,32.18
2023-04-07T12:36:35.449Z,33.21
2023-04-07T12:39:03.948Z,33.92
2023-04-07T12:41:32.731Z,33.76
2023-04-07T12:44:01.226Z,34.36
2023-04-07T12:46:29.900Z,36.28
2023-04-07T12:48:58.504Z,36.92
2023-04-07T12:51:27.607Z,37.21
2023-04-07T12:53:56.082Z,37.90
2023-04-07T12:56:24.471Z,39.29
2023-04-07T12:58:53.672Z,39.75
2023-04-07T13:01:22.135Z,40.07
2023-04-07T13:03:51.532Z,38.79
2023-04-07T13:06:20.461Z,38.91
2023-04-07T13:08:48.746Z,39.28
2023-04-07T13:11:17.512Z,38.62
2023-04-07T13:13:48.267Z,37.35
2023-04-07T13:16:17.634Z,36.62
2023-04-07T13:18:46.112Z,33.83
2023-04-07T13:23:46.720Z,33.38
2023-04-07T13:26:15.210Z,32.75
2023-04-07T13:28:46.133Z,32.13
2023-04-07T13:31:16.428Z,32.52
2023-04-07T13:33:45.499Z,33.17
2023-04-07T13:36:13.910Z,34.02
2023-04-07T13:38:42.866Z,35.11
2023-04-07T13:41:11.469Z,34.73
2023-04-07T13:43:40.058Z,35.37
2023-04-07T13:46:20.792Z,36.26
2023-04-07T13:48:56.459Z,36.88
2023-04-07T13:51:24.993Z,35.52
2023-04-07T13:53:53.446Z,35.99
2023-04-07T13:56:22.604Z,35.89
2023-04-07T13:58:51.640Z,35.37
2023-04-07T14:01:20.160Z,34.13
2023-04-07T14:03:49.832Z,34.04
2023-04-07T14:06:18.430Z,34.19
2023-04-07T14:08:46.825Z,32.59
2023-04-07T14:11:29.219Z,32.57
2023-04-07T14:14:21.757Z,31.14
2023-04-07T14:16:53.517Z,30.86
2023-04-07T14:19:23.540Z,30.46
2023-04-07T14:21:52.073Z,29.80
2023-04-07T14:24:22.164Z,29.92
2023-04-07T14:26:51.319Z,28.66
2023-04-07T14:29:19.733Z,28.43
2023-04-07T14:31:48.944Z,26.75
2023-04-07T14:34:17.534Z,27.84
2023-04-07T14:36:57.380Z,27.88
2023-04-07T14:39:25.855Z,28.19
2023-04-07T14:41:54.451Z,28.54
2023-04-07T14:44:23.173Z,26.91
2023-04-07T14:46:51.725Z,26.48
2023-04-07T14:49:20.419Z,26.66
2023-04-07T14:51:48.907Z,27.07
2023-04-07T14:54:17.088Z,27.60
2023-04-07T14:56:45.696Z,27.36
2023-04-07T14:59:13.958Z,27.62
2023-04-07T15:01:42.748Z,27.72
2023-04-07T15:04:12.034Z,27.53
2023-04-07T15:06:45.609Z,28.72
2023-04-07T15:09:15.274Z,28.43
2023-04-07T15:11:43.764Z,28.84
2023-04-07T15:14:12.746Z,29.48
2023-04-07T15:16:41.340Z,30.04
2023-04-07T15:19:10.143Z,30.38
2023-04-07T15:21:38.736Z,31.34
2023-04-07T15:24:06.914Z,32.09
2023-04-07T15:26:35.096Z,33.08
2023-04-07T15:29:03.389Z,33.53
2023-04-07T15:31:31.801Z,33.41
2023-04-07T15:34:02.429Z,34.48
2023-04-07T15:36:31.823Z,34.76
2023-04-07T15:39:10.657Z,35.11
2023-04-07T15:41:41.716Z,36.36
2023-04-07T15:44:10.155Z,36.12
2023-04-07T15:46:38.879Z,37.12
2023-04-07T15:49:07.542Z,38.41
2023-04-07T15:51:36.022Z,39.40
2023-04-07T15:54:04.214Z,39.49
2023-04-07T15:56:32.600Z,39.71
2023-04-07T15:59:01.086Z,40.32
2023-04-07T16:01:30.341Z,40.77
2023-04-07T16:03:58.922Z,40.76
2023-04-07T16:06:27.662Z,41.06
2023-04-07T16:08:56.455Z,41.92
2023-04-07T16:11:24.853Z,42.70
2023-04-07T16:13:53.196Z,43.79
2023-04-07T16:16:21.765Z,45.55
2023-04-07T16:18:50.715Z,47.45
2023-04-07T16:21:19.401Z,49.10
2023-04-07T16:23:48.221Z,50.48
2023-04-07T16:26:16.782Z,51.72
2023-04-07T16:28:45.478Z,52.32
2023-04-07T16:31:13.975Z,52.74
2023-04-07T16:33:42.291Z,54.01
2023-04-07T16:36:10.895Z,53.81
2023-04-07T16:38:39.540Z,54.00
2023-04-07T16:41:11.399Z,54.06
2023-04-07T16:43:39.991Z,54.36
2023-04-07T16:46:09.210Z,54.84
2023-04-07T16:48:37.674Z,55.58
2023-04-07T16:51:06.577Z,55.32
2023-04-07T16:53:34.951Z,54.57
2023-04-07T16:56:03.443Z,54.16
2023-04-07T16:58:31.769Z,54.19
2023-04-07T17:01:00.347Z,53.97
2023-04-07T17:03:28.809Z,54.00
2023-04-07T17:05:57.699Z,55.21
2023-04-07T17:08:26.088Z,55.91
2023-04-07T17:10:54.377Z,56.59
2023-04-07T17:13:23.266Z,56.38
2023-04-07T17:15:51.960Z,57.46
2023-04-07T17:18:20.636Z,58.16
2023-04-07T17:20:49.123Z,57.69
2023-04-07T17:23:32.588Z,57.49
2023-04-07T17:26:16.822Z,58.15
2023-04-07T17:28:47.228Z,58.53
2023-04-07T17:31:15.738Z,58.36
2023-04-07T17:33:44.301Z,59.23
2023-04-07T17:36:13.247Z,59.64
2023-04-07T17:38:41.589Z,59.72
2023-04-07T17:41:09.872Z,59.95
2023-04-07T17:43:38.362Z,59.61
2023-04-07T17:46:06.770Z,59.75
2023-04-07T17:48:35.330Z,59.63
2023-04-07T17:51:04.533Z,60.06
2023-04-07T17:53:33.019Z,60.13
2023-04-07T17:56:01.822Z,60.32
2023-04-07T17:58:30.092Z,60.00
2023-04-07T18:00:58.378Z,60.15
2023-04-07T18:03:27.172Z,60.74
2023-04-07T18:05:55.551Z,61.05
2023-04-07T18:08:25.171Z,60.96
2023-04-07T18:10:53.446Z,61.00
2023-04-07T18:13:21.828Z,61.19
2023-04-07T18:15:50.157Z,61.67
2023-04-07T18:18:19.933Z,61.69
2023-04-07T18:20:49.851Z,61.82
2023-04-07T18:23:18.850Z,61.98
2023-04-07T18:25:47.552Z,61.98
2023-04-07T18:28:17.359Z,62.36
2023-04-07T18:30:45.638Z,62.93
2023-04-07T18:33:14.542Z,63.48
2023-04-07T18:35:43.058Z,63.64
2023-04-07T18:38:11.407Z,63.66
2023-04-07T18:40:40.207Z,63.39
2023-04-07T18:43:08.791Z,63.49
2023-04-07T18:45:37.686Z,63.37
2023-04-07T18:48:06.659Z,63.38
2023-04-07T18:50:35.385Z,63.54
2023-04-07T18:53:03.862Z,63.54
2023-04-07T18:55:32.469Z,63.86
2023-04-07T18:58:01.061Z,63.76
2023-04-07T19:00:29.673Z,64.52
2023-04-07T19:02:58.298Z,63.96
2023-04-07T19:05:26.709Z,63.22
2023-04-07T19:07:55.115Z,63.32
2023-04-07T19:10:24.778Z,63.48
2023-04-07T19:12:53.497Z,63.34
2023-04-07T19:15:22.596Z,63.59
2023-04-07T19:17:51.980Z,63.50
2023-04-07T19:20:20.949Z,63.67
2023-04-07T19:22:51.644Z,63.44
2023-04-07T19:25:20.542Z,63.85
2023-04-07T19:27:48.948Z,63.97
2023-04-07T19:30:17.615Z,63.89
2023-04-07T19:32:48.175Z,64.35
2023-04-07T19:35:17.408Z,64.47
2023-04-07T19:37:47.841Z,64.51
2023-04-07T19:40:16.676Z,64.57
2023-04-07T19:42:44.856Z,64.59
2023-04-07T19:45:13.545Z,64.93
2023-04-07T19:47:43.663Z,65.21
2023-04-07T19:50:12.168Z,65.64
2023-04-07T19:52:43.339Z,65.44
2023-04-07T19:55:14.484Z,65.81
2023-04-07T19:57:43.449Z,65.94
2023-04-07T20:00:12.643Z,66.19
2023-04-07T20:02:50.455Z,66.52
2023-04-07T20:05:19.887Z,66.72
2023-04-07T20:07:48.455Z,66.71
2023-04-07T20:10:17.066Z,66.75
2023-04-07T20:12:46.148Z,66.98
2023-04-07T20:15:15.452Z,67.32
2023-04-07T20:17:45.848Z,67.42
2023-04-07T20:20:16.531Z,67.29
2023-04-07T20:22:45.531Z,67.41
2023-04-07T20:25:14.110Z,67.76
2023-04-07T20:27:42.398Z,67.79
2023-04-07T20:30:11.308Z,67.82
2023-04-07T20:32:40.464Z,68.02
2023-04-07T20:35:09.891Z,68.18
2023-04-07T20:37:38.294Z,67.88
2023-04-07T20:40:08.509Z,67.65
2023-04-07T20:42:37.046Z,67.52
2023-04-07T20:45:06.717Z,67.58
2023-04-07T20:47:37.047Z,67.81
2023-04-07T20:50:06.701Z,67.81
2023-04-07T20:52:39.748Z,67.61
2023-04-07T20:55:08.838Z,67.70
2023-04-07T20:57:39.694Z,67.05
2023-04-07T21:00:10.492Z,66.91
2023-04-07T21:02:39.354Z,66.69
2023-04-07T21:05:09.112Z,66.70
2023-04-07T21:07:37.417Z,66.75
2023-04-07T21:10:06.703Z,67.09
2023-04-07T21:12:35.960Z,67.35
2023-04-07T21:15:05.088Z,67.33
2023-04-07T21:17:33.858Z,67.61
2023-04-07T21:20:04.455Z,67.77
2023-04-07T21:22:32.838Z,67.27
2023-04-07T21:25:01.121Z,67.55
2023-04-07T21:27:29.920Z,67.47
2023-04-07T21:29:58.097Z,67.85
2023-04-07T21:32:26.832Z,67.89
2023-04-07T21:34:55.480Z,67.81
2023-04-07T21:37:23.972Z,67.95
2023-04-07T21:39:55.213Z,68.07
2023-04-07T21:42:23.502Z,68.37
2023-04-07T21:44:52.083Z,68.54
2023-04-07T21:47:21.312Z,68.37
2023-04-07T21:49:49.778Z,68.56
2023-04-07T21:52:18.370Z,69.04
2023-04-07T21:54:46.858Z,69.11
2023-04-07T21:57:15.153Z,69.33
2023-04-07T21:59:43.515Z,69.35
2023-04-07T22:02:13.090Z,69.77
2023-04-07T22:04:42.108Z,69.72
2023-04-07T22:07:10.733Z,70.19
2023-04-07T22:09:39.111Z,69.98
2023-04-07T22:12:07.496Z,69.94
2023-04-07T22:14:36.382Z,70.32
2023-04-07T22:17:04.664Z,70.15
2023-04-07T22:19:33.375Z,70.22
2023-04-07T22:22:02.152Z,70.42
2023-04-07T22:24:30.545Z,70.52
2023-04-07T22:26:59.123Z,70.32
2023-04-07T22:29:28.033Z,70.50
2023-04-07T22:31:56.394Z,70.38
2023-04-07T22:34:24.787Z,70.38
2023-04-07T22:36:53.068Z,70.38
2023-04-07T22:39:21.506Z,70.29
2023-04-07T22:41:49.631Z,70.16
2023-04-07T22:44:18.430Z,70.14
2023-04-07T22:46:47.322Z,70.50
2023-04-07T22:49:16.433Z,70.30
2023-04-07T22:51:48.735Z,70.17
2023-04-07T22:54:18.051Z,69.93
2023-04-07T22:56:46.600Z,70.37
2023-04-07T22:59:15.185Z,70.04
2023-04-07T23:01:43.443Z,70.43
2023-04-07T23:04:12.053Z,70.59
2023-04-07T23:06:43.741Z,70.15
2023-04-07T23:09:12.405Z,70.54
2023-04-07T23:11:40.997Z,70.52
2023-04-07T23:14:09.787Z,70.16
2023-04-07T23:16:38.401Z,70.52
2023-04-07T23:19:11.523Z,70.28
2023-04-07T23:21:40.462Z,70.05
2023-04-07T23:24:09.763Z,70.28
2023-04-07T23:26:38.259Z,70.46
2023-04-07T23:29:06.844Z,70.30
2023-04-07T23:31:35.374Z,70.46
2023-04-07T23:34:04.863Z,70.65
2023-04-07T23:36:33.533Z,70.99
2023-04-07T23:39:02.853Z,71.18
2023-04-07T23:41:32.043Z,71.26
2023-04-07T23:44:00.736Z,71.78
2023-04-07T23:46:29.676Z,72.12
2023-04-07T23:48:58.738Z,72.18
2023-04-07T23:51:28.342Z,72.36
2023-04-07T23:53:57.043Z,72.67
2023-04-07T23:56:25.464Z,72.80
2023-04-07T23:58:53.910Z,73.01
